createdAt,value
2018-12-12T00:00:23.939Z,101102.38
2018-12-12T00:03:12.131Z,101102.63
2018-12-12T00:06:00.226Z,101109.47
2018-12-12T00:08:46.848Z,101110.27
2018-12-12T00:11:35.172Z,101112.44
2018-12-12T00:14:21.927Z,101121.48
2018-12-12T00:17:11.449Z,101114.21
2018-12-12T00:23:20.685Z,101131.87
2018-12-12T00:26:11.667Z,101132.58
2018-12-12T00:32:11.796Z,101135.61
2018-12-12T00:35:05.798Z,101136.17
2018-12-12T00:38:00.869Z,101137.62
2018-12-12T00:40:54.695Z,101135.99
2018-12-12T00:43:43.417Z,101138.02
2018-12-12T00:46:31.844Z,101145.70
2018-12-12T00:49:21.853Z,101144.20
2018-12-12T00:52:19.941Z,101143.45
2018-12-12T00:55:07.290Z,101152.31
2018-12-12T01:01:12.020Z,101149.04
2018-12-12T01:04:00.569Z,101153.97
2018-12-12T01:06:50.806Z,101158.91
2018-12-12T01:09:38.320Z,101160.29
2018-12-12T01:12:28.881Z,101165.53
2018-12-12T01:15:16.331Z,101172.05
2018-12-12T01:18:05.285Z,101175.48
2018-12-12T01:20:52.628Z,101175.02
2018-12-12T01:23:39.591Z,101178.00
2018-12-12T01:26:27.167Z,101181.50
2018-12-12T01:29:20.935Z,101179.77
2018-12-12T01:32:15.569Z,101183.66
2018-12-12T01:35:09.692Z,101187.56
2018-12-12T01:37:58.340Z,101188.91
2018-12-12T01:40:55.215Z,101183.63
2018-12-12T01:43:46.618Z,101187.56
2018-12-12T01:46:36.759Z,101188.44
2018-12-12T01:49:24.200Z,101185.79
2018-12-12T01:52:11.923Z,101184.86
2018-12-12T01:54:59.071Z,101190.14
2018-12-12T01:57:45.922Z,101190.27
2018-12-12T02:00:32.796Z,101182.97
2018-12-12T02:03:20.132Z,101188.23
2018-12-12T02:06:07.298Z,101190.48
2018-12-12T02:09:04.892Z,101188.33
2018-12-12T02:12:01.969Z,101188.39
2018-12-12T02:14:51.034Z,101192.77
2018-12-12T02:17:37.977Z,101193.72
2018-12-12T02:20:24.941Z,101197.44
2018-12-12T02:23:11.738Z,101191.91
2018-12-12T02:25:59.942Z,101201.56
2018-12-12T02:28:47.007Z,101197.23
2018-12-12T02:34:43.399Z,101194.67
2018-12-12T02:40:39.520Z,101201.56
2018-12-12T02:43:26.534Z,101204.27
2018-12-12T02:46:13.201Z,101199.93
2018-12-12T02:49:00.096Z,101201.30
2018-12-12T02:51:47.373Z,101207.03
2018-12-12T02:54:34.741Z,101207.61
2018-12-12T02:57:23.083Z,101202.05
2018-12-12T03:03:22.581Z,101195.93
2018-12-12T03:06:10.160Z,101190.38
2018-12-12T03:08:57.243Z,101200.60
2018-12-12T03:11:47.743Z,101208.33
2018-12-12T03:14:34.701Z,101208.77
2018-12-12T03:17:24.370Z,101214.62
2018-12-12T03:20:12.443Z,101218.00
2018-12-12T03:22:59.519Z,101223.65
2018-12-12T03:25:46.272Z,101228.67
2018-12-12T03:28:33.316Z,101219.20
2018-12-12T03:31:20.150Z,101217.53
2018-12-12T03:34:07.780Z,101224.52
2018-12-12T03:36:55.334Z,101221.23
2018-12-12T03:39:42.935Z,101223.34
2018-12-12T03:42:29.989Z,101226.84
2018-12-12T03:45:17.792Z,101220.45
2018-12-12T03:48:05.810Z,101237.66
2018-12-12T03:50:53.419Z,101228.95
2018-12-12T03:53:42.211Z,101231.30
2018-12-12T03:56:29.428Z,101231.31
2018-12-12T03:59:17.057Z,101227.86
2018-12-12T04:02:03.773Z,101227.89
2018-12-12T04:04:50.516Z,101231.42
2018-12-12T04:07:37.428Z,101238.86
2018-12-12T04:10:24.306Z,101234.95
2018-12-12T04:13:10.913Z,101233.63
2018-12-12T04:15:59.174Z,101238.88
2018-12-12T04:18:46.316Z,101238.87
2018-12-12T04:24:38.658Z,101239.73
2018-12-12T04:27:28.643Z,101245.40
2018-12-12T04:30:16.609Z,101248.50
2018-12-12T04:33:05.002Z,101252.25
2018-12-12T04:35:51.990Z,101250.45
2018-12-12T04:38:39.288Z,101258.05
2018-12-12T04:41:26.810Z,101252.92
2018-12-12T04:44:13.606Z,101256.00
2018-12-12T04:47:00.951Z,101258.71
2018-12-12T04:49:48.716Z,101264.00
2018-12-12T04:52:35.723Z,101260.98
2018-12-12T04:55:22.752Z,101261.35
2018-12-12T05:01:15.921Z,101252.58
2018-12-12T05:04:02.922Z,101248.70
2018-12-12T05:06:49.531Z,101253.97
2018-12-12T05:09:37.183Z,101250.91
2018-12-12T05:12:24.438Z,101249.62
2018-12-12T05:15:11.399Z,101253.09
2018-12-12T05:17:58.650Z,101252.25
2018-12-12T05:20:46.200Z,101256.56
2018-12-12T05:23:33.509Z,101260.06
2018-12-12T05:26:21.019Z,101261.39
2018-12-12T05:29:08.367Z,101256.15
2018-12-12T05:31:55.856Z,101259.23
2018-12-12T05:34:43.392Z,101260.14
2018-12-12T05:37:30.748Z,101269.30
2018-12-12T05:40:17.752Z,101269.72
2018-12-12T05:43:05.263Z,101271.01
2018-12-12T05:45:51.916Z,101273.20
2018-12-12T05:48:39.019Z,101277.02
2018-12-12T05:51:26.506Z,101273.77
2018-12-12T05:54:17.105Z,101273.90
2018-12-12T05:57:04.108Z,101273.89
2018-12-12T06:02:57.089Z,101274.36
2018-12-12T06:05:44.331Z,101280.00
2018-12-12T06:08:32.033Z,101290.47
2018-12-12T06:11:19.725Z,101289.06
2018-12-12T06:14:07.848Z,101291.91
2018-12-12T06:16:57.833Z,101294.25
2018-12-12T06:19:45.544Z,101292.97
2018-12-12T06:22:37.559Z,101291.69
2018-12-12T06:25:20.491Z,101300.45
2018-12-12T06:28:08.145Z,101307.01
2018-12-12T06:30:55.803Z,101306.17
2018-12-12T06:33:43.510Z,101307.06
2018-12-12T06:36:31.070Z,101304.49
2018-12-12T06:39:18.675Z,101310.62
2018-12-12T06:42:15.459Z,101318.00
2018-12-12T06:45:03.203Z,101317.58
2018-12-12T06:47:53.142Z,101318.42
2018-12-12T06:50:40.347Z,101315.83
2018-12-12T06:56:33.154Z,101325.03
2018-12-12T06:59:20.448Z,101325.84
2018-12-12T07:02:07.975Z,101327.55
2018-12-12T07:04:55.330Z,101337.16
2018-12-12T07:07:42.582Z,101336.26
2018-12-12T07:10:30.193Z,101342.73
2018-12-12T07:13:17.428Z,101347.23
2018-12-12T07:16:04.358Z,101350.41
2018-12-12T07:18:51.403Z,101351.72
2018-12-12T07:21:38.708Z,101353.91
2018-12-12T07:24:26.402Z,101350.04
2018-12-12T07:27:13.093Z,101347.73
2018-12-12T07:30:00.174Z,101347.97
2018-12-12T07:32:47.275Z,101354.66
2018-12-12T07:35:34.376Z,101360.34
2018-12-12T07:38:21.754Z,101364.25
2018-12-12T07:41:08.966Z,101367.75
2018-12-12T07:43:56.426Z,101363.80
2018-12-12T07:46:43.327Z,101370.35
2018-12-12T07:49:30.362Z,101379.53
2018-12-12T07:52:17.563Z,101380.20
2018-12-12T07:55:12.063Z,101380.88
2018-12-12T07:57:58.729Z,101385.83
2018-12-12T08:00:45.783Z,101382.40
2018-12-12T08:03:32.637Z,101393.31
2018-12-12T08:06:19.507Z,101397.31
2018-12-12T08:09:06.524Z,101397.33
2018-12-12T08:11:53.367Z,101401.24
2018-12-12T08:14:40.282Z,101404.52
2018-12-12T08:17:27.313Z,101406.60
2018-12-12T08:23:21.070Z,101414.28
2018-12-12T08:26:07.847Z,101420.86
2018-12-12T08:28:55.479Z,101421.75
2018-12-12T08:31:42.237Z,101423.03
2018-12-12T08:34:29.041Z,101423.92
2018-12-12T08:37:18.649Z,101426.54
2018-12-12T08:40:05.298Z,101437.25
2018-12-12T08:42:52.116Z,101435.36
2018-12-12T08:45:39.182Z,101435.00
2018-12-12T08:48:26.038Z,101444.58
2018-12-12T08:51:12.903Z,101445.38
2018-12-12T08:54:00.184Z,101455.63
2018-12-12T08:56:46.769Z,101451.73
2018-12-12T08:59:34.697Z,101450.89
2018-12-12T09:02:21.921Z,101451.78
2018-12-12T09:05:08.800Z,101458.66
2018-12-12T09:07:55.660Z,101460.45
2018-12-12T09:10:42.671Z,101458.75
2018-12-12T09:13:29.800Z,101462.59
2018-12-12T09:16:16.749Z,101466.12
2018-12-12T09:22:09.950Z,101460.95
2018-12-12T09:24:57.127Z,101464.86
2018-12-12T09:27:43.831Z,101466.56
2018-12-12T09:30:32.426Z,101464.77
2018-12-12T09:33:24.521Z,101469.56
2018-12-12T09:36:06.116Z,101466.49
2018-12-12T09:38:53.191Z,101474.52
2018-12-12T09:41:39.990Z,101477.25
2018-12-12T09:44:27.309Z,101463.61
2018-12-12T09:47:14.514Z,101474.16
2018-12-12T09:50:01.223Z,101482.00
2018-12-12T09:52:48.089Z,101483.73
2018-12-12T09:55:35.045Z,101489.33
2018-12-12T09:58:22.016Z,101491.77
2018-12-12T10:01:08.687Z,101494.20
2018-12-12T10:03:55.682Z,101488.73
2018-12-12T10:06:42.813Z,101496.81
2018-12-12T10:09:29.807Z,101495.99
2018-12-12T10:12:16.927Z,101491.69
2018-12-12T10:15:03.713Z,101498.84
2018-12-12T10:17:50.691Z,101489.53
2018-12-12T10:20:37.457Z,101498.41
2018-12-12T10:23:39.863Z,101491.83
2018-12-12T10:26:26.620Z,101493.52
2018-12-12T10:29:17.445Z,101490.97
2018-12-12T10:32:05.442Z,101488.03
2018-12-12T10:34:50.966Z,101486.05
2018-12-12T10:37:37.819Z,101483.06
2018-12-12T10:43:30.979Z,101482.25
2018-12-12T10:46:25.562Z,101472.38
2018-12-12T10:49:12.268Z,101477.26
2018-12-12T10:51:58.731Z,101474.66
2018-12-12T10:54:45.686Z,101474.91
2018-12-12T10:57:32.761Z,101476.84
2018-12-12T11:00:20.884Z,101478.77
2018-12-12T11:03:25.872Z,101477.97
2018-12-12T11:06:12.788Z,101468.98
2018-12-12T11:08:59.858Z,101472.62
2018-12-12T11:11:47.003Z,101463.67
2018-12-12T11:14:34.753Z,101468.80
2018-12-12T11:17:21.467Z,101467.61
2018-12-12T11:20:08.651Z,101466.33
2018-12-12T11:22:56.056Z,101471.49
2018-12-12T11:28:51.978Z,101469.64
2018-12-12T11:31:40.240Z,101470.67
2018-12-12T11:34:27.072Z,101471.23
2018-12-12T11:37:14.525Z,101472.50
2018-12-12T11:40:01.513Z,101467.61
2018-12-12T11:42:48.135Z,101464.41
2018-12-12T11:45:35.371Z,101460.86
2018-12-12T11:48:22.451Z,101467.36
2018-12-12T11:51:09.464Z,101466.36
2018-12-12T11:53:56.683Z,101472.08
2018-12-12T11:56:43.591Z,101466.83
2018-12-12T11:59:31.526Z,101466.48
2018-12-12T12:02:18.297Z,101460.91
2018-12-12T12:05:05.214Z,101467.20
2018-12-12T12:07:52.890Z,101469.53
2018-12-12T12:10:39.639Z,101462.94
2018-12-12T12:13:34.107Z,101464.45
2018-12-12T12:16:21.330Z,101469.17
2018-12-12T12:19:08.266Z,101466.58
2018-12-12T12:21:55.116Z,101463.95
2018-12-12T12:24:43.607Z,101466.09
2018-12-12T12:27:31.284Z,101461.69
2018-12-12T12:30:18.691Z,101463.16
2018-12-12T12:33:08.656Z,101463.06
2018-12-12T12:35:55.673Z,101462.31
2018-12-12T12:38:42.808Z,101458.56
2018-12-12T12:41:30.013Z,101459.75
2018-12-12T12:44:17.306Z,101459.38
2018-12-12T12:47:04.812Z,101455.75
2018-12-12T12:49:53.450Z,101455.80
2018-12-12T12:52:40.468Z,101463.55
2018-12-12T12:55:27.971Z,101467.02
2018-12-12T12:58:14.899Z,101460.23
2018-12-12T13:04:09.775Z,101461.87
2018-12-12T13:07:02.037Z,101454.63
2018-12-12T13:09:48.837Z,101454.55
2018-12-12T13:12:36.333Z,101458.65
2018-12-12T13:15:23.693Z,101451.31
2018-12-12T13:18:11.666Z,101445.23
2018-12-12T13:20:59.052Z,101446.55
2018-12-12T13:23:49.675Z,101444.54
2018-12-12T14:16:38.140Z,101466.16
2018-12-12T14:19:31.535Z,101464.88
2018-12-12T14:22:19.482Z,101470.55
2018-12-12T15:21:15.662Z,101468.52
2018-12-12T15:27:08.249Z,101472.38
2018-12-12T15:29:55.428Z,101467.31
2018-12-12T15:32:42.317Z,101480.73
2018-12-12T15:35:29.906Z,101476.60
2018-12-12T15:38:16.981Z,101482.85
2018-12-12T15:41:04.349Z,101476.09
2018-12-12T15:43:51.395Z,101477.59
2018-12-12T15:46:41.223Z,101489.14
2018-12-12T15:49:29.529Z,101484.00
2018-12-12T15:52:16.447Z,101483.23
2018-12-12T15:55:03.189Z,101483.77
2018-12-12T15:57:50.941Z,101480.37
2018-12-12T16:00:38.159Z,101483.03
2018-12-12T16:03:26.100Z,101493.83
2018-12-12T16:06:13.144Z,101490.36
2018-12-12T16:09:00.568Z,101491.11
2018-12-12T16:11:47.771Z,101492.02
2018-12-12T16:14:35.417Z,101499.48
2018-12-12T16:17:23.286Z,101489.23
2018-12-12T16:20:13.111Z,101494.44
2018-12-12T16:23:00.417Z,101495.38
2018-12-12T16:25:47.764Z,101496.70
2018-12-12T16:28:35.871Z,101489.85
2018-12-12T16:34:31.623Z,101480.53
2018-12-12T16:37:20.317Z,101472.39
2018-12-12T16:40:10.729Z,101468.58
2018-12-12T16:42:58.724Z,101463.44
2018-12-12T16:45:45.965Z,101465.97
2018-12-12T16:48:32.747Z,101474.72
2018-12-12T16:51:20.370Z,101473.94
2018-12-12T16:54:07.590Z,101473.97
2018-12-12T16:56:55.048Z,101474.91
2018-12-12T17:02:48.983Z,101481.88
2018-12-12T17:05:36.458Z,101486.22
2018-12-12T17:08:23.656Z,101490.02
2018-12-12T17:11:11.762Z,101492.48
2018-12-12T17:14:40.726Z,101492.44
2018-12-12T17:17:28.147Z,101490.30
2018-12-12T17:20:25.972Z,101489.45
2018-12-12T17:23:13.357Z,101489.44
2018-12-12T17:26:13.219Z,101493.38
2018-12-12T17:29:00.912Z,101489.03
2018-12-12T17:31:48.720Z,101492.53
2018-12-12T17:34:36.036Z,101496.50
2018-12-12T17:37:23.398Z,101484.73
2018-12-12T17:40:11.149Z,101489.09
2018-12-12T17:43:03.415Z,101485.64
2018-12-12T17:45:50.099Z,101495.23
2018-12-12T17:51:42.840Z,101498.30
2018-12-12T17:54:30.161Z,101502.21
2018-12-12T17:57:17.812Z,101503.12
2018-12-12T18:00:10.636Z,101505.73
2018-12-12T18:02:58.083Z,101507.05
2018-12-12T18:05:45.866Z,101507.06
2018-12-12T18:08:33.438Z,101510.56
2018-12-12T18:11:21.140Z,101513.18
2018-12-12T18:14:07.989Z,101511.41
2018-12-12T18:16:54.828Z,101518.41
2018-12-12T18:19:43.955Z,101517.56
2018-12-12T18:22:33.033Z,101516.70
2018-12-12T18:25:21.554Z,101519.34
2018-12-12T18:28:17.221Z,101519.37
2018-12-12T18:31:04.903Z,101521.10
2018-12-12T18:33:53.151Z,101517.61
2018-12-12T18:36:40.549Z,101521.09
2018-12-12T18:39:28.627Z,101513.25
2018-12-12T18:42:15.973Z,101518.91
2018-12-12T18:45:06.471Z,101513.70
2018-12-12T18:47:54.258Z,101519.81
2018-12-12T18:50:44.746Z,101525.06
2018-12-12T18:53:42.234Z,101519.88
2018-12-12T18:56:30.011Z,101528.89
2018-12-12T18:59:16.951Z,101527.25
2018-12-12T19:02:05.849Z,101534.69
2018-12-12T19:04:55.996Z,101533.47
2018-12-12T19:07:43.120Z,101531.59
2018-12-12T19:10:41.804Z,101530.32
2018-12-12T19:13:28.944Z,101539.06
2018-12-12T19:16:16.120Z,101543.47
2018-12-12T19:19:05.128Z,101553.91
2018-12-12T19:21:52.648Z,101552.63
2018-12-12T19:24:40.249Z,101553.05
2018-12-12T19:27:27.964Z,101545.26
2018-12-12T19:30:31.308Z,101557.70
2018-12-12T19:33:18.669Z,101560.00
2018-12-12T19:36:07.193Z,101555.23
2018-12-12T19:38:54.184Z,101562.64
2018-12-12T19:41:41.565Z,101565.71
2018-12-12T19:44:28.732Z,101567.01
2018-12-12T19:47:16.137Z,101561.36
2018-12-12T19:50:24.573Z,101563.55
2018-12-12T19:53:12.038Z,101554.41
2018-12-12T19:55:59.274Z,101557.03
2018-12-12T19:58:46.146Z,101560.48
2018-12-12T20:01:34.504Z,101552.66
2018-12-12T20:04:22.750Z,101549.20
2018-12-12T20:07:10.618Z,101550.94
2018-12-12T20:13:11.828Z,101551.81
2018-12-12T20:15:59.380Z,101552.66
2018-12-12T20:18:47.349Z,101555.23
2018-12-12T20:21:34.282Z,101551.81
2018-12-12T20:24:21.820Z,101560.94
2018-12-12T20:27:09.358Z,101556.56
2018-12-12T20:29:56.226Z,101560.93
2018-12-12T20:32:42.829Z,101562.22
2018-12-12T20:41:43.295Z,101566.59
2018-12-12T20:44:30.752Z,101573.95
2018-12-12T20:47:19.465Z,101570.48
2018-12-12T20:50:08.136Z,101563.50
2018-12-12T20:53:04.589Z,101572.20
2018-12-12T20:55:51.427Z,101578.72
2018-12-12T20:58:38.348Z,101580.02
2018-12-12T21:01:25.661Z,101580.91
2018-12-12T21:04:13.078Z,101583.09
2018-12-12T21:07:00.326Z,101585.27
2018-12-12T21:16:01.524Z,101589.63
2018-12-12T21:18:48.744Z,101585.27
2018-12-12T21:21:36.965Z,101595.72
2018-12-12T21:24:23.833Z,101591.38
2018-12-12T21:27:11.514Z,101590.48
2018-12-12T21:30:01.307Z,101589.63
2018-12-12T21:32:48.936Z,101585.73
2018-12-12T21:35:37.948Z,101583.55
2018-12-12T21:38:27.675Z,101589.63
2018-12-12T21:41:23.870Z,101588.31
2018-12-12T21:44:13.931Z,101581.37
2018-12-12T21:47:09.751Z,101580.93
2018-12-12T21:50:00.697Z,101582.67
2018-12-12T21:52:50.185Z,101587.02
2018-12-12T21:55:38.809Z,101590.93
2018-12-12T21:58:27.594Z,101589.19
2018-12-12T22:01:14.737Z,101587.02
2018-12-12T22:04:03.711Z,101591.80
2018-12-12T22:06:51.047Z,101588.23
2018-12-12T22:09:41.136Z,101582.23
2018-12-12T22:12:32.426Z,101584.41
2018-12-12T22:15:22.609Z,101584.86
2018-12-12T22:18:10.904Z,101588.19
2018-12-12T22:21:05.209Z,101591.78
2018-12-12T22:26:58.957Z,101589.45
2018-12-12T22:29:46.226Z,101595.69
2018-12-12T22:32:33.463Z,101589.84
2018-12-12T22:35:23.105Z,101591.76
2018-12-12T22:38:10.353Z,101586.57
2018-12-12T22:40:59.411Z,101585.70
2018-12-12T22:43:47.186Z,101586.56
2018-12-12T22:46:35.699Z,101592.66
2018-12-12T22:49:24.082Z,101593.55
2018-12-12T22:52:11.899Z,101589.62
2018-12-12T22:55:01.022Z,101590.94
2018-12-12T22:57:48.892Z,101587.87
2018-12-12T23:00:36.255Z,101587.88
2018-12-12T23:06:29.598Z,101589.63
2018-12-12T23:09:18.098Z,101589.19
2018-12-12T23:12:05.847Z,101588.31
2018-12-12T23:14:52.627Z,101592.23
2018-12-12T23:17:39.333Z,101597.00
2018-12-12T23:20:26.448Z,101592.66
2018-12-12T23:23:14.381Z,101584.42
2018-12-12T23:26:02.629Z,101593.98
2018-12-12T23:28:50.185Z,101592.23
2018-12-12T23:31:37.210Z,101590.06
2018-12-12T23:34:23.960Z,101591.81
2018-12-12T23:40:18.094Z,101587.45
2018-12-12T23:43:05.001Z,101584.84
2018-12-12T23:45:52.420Z,101586.92
2018-12-12T23:48:39.785Z,101588.33
2018-12-12T23:51:28.166Z,101583.54
2018-12-12T23:54:15.265Z,101579.63
2018-12-12T23:57:03.008Z,101574.73
2018-12-12T23:59:50.719Z,101575.95
